Time;durP1;ratioP1;P1;durP2;ratioP2;P2;SDS_P1;SDS_P2;PMS_P1;PMS_P2;Temp;Humidity;BMP_temperature;BMP_pressure;BME280_temperature;BME280_humidity;BME280_pressure;Samples;Min_cycle;Max_cycle;Signal;HPM_P1;HPM_P2
2021/04/17 00:02:01;;;;;;;1.40;0.30;;;4.50;99.90;;;;;;5035834;28;20017;-72
2021/04/17 00:04:28;;;;;;;4.50;0.95;;;4.40;99.90;;;;;;5035666;28;20049;-72
2021/04/17 00:06:54;;;;;;;3.58;0.98;;;4.40;99.90;;;;;;5035652;28;20022;-73
2021/04/17 00:09:23;;;;;;;3.50;0.55;;;4.40;99.90;;;;;;5035877;28;20079;-73
2021/04/17 00:11:50;;;;;;;5.40;1.15;;;4.30;99.90;;;;;;5036662;28;20109;-73
2021/04/17 00:14:19;;;;;;;2.65;0.40;;;4.30;99.90;;;;;;5015951;28;20474;-73
2021/04/17 00:16:46;;;;;;;1.88;0.43;;;4.30;99.90;;;;;;5031162;28;20018;-73
2021/04/17 00:19:14;;;;;;;6.15;0.60;;;4.20;99.90;;;;;;5016051;28;20018;-73
2021/04/17 00:21:39;;;;;;;5.05;1.63;;;4.20;99.90;;;;;;5031138;28;20056;-73
2021/04/17 00:24:06;;;;;;;6.00;0.40;;;4.20;99.90;;;;;;5015766;28;20482;-72
2021/04/17 00:26:33;;;;;;;5.20;0.63;;;4.10;99.90;;;;;;5029154;28;20022;-72
2021/04/17 00:28:59;;;;;;;1.63;0.30;;;4.10;99.90;;;;;;5017662;28;20025;-72
2021/04/17 00:31:25;;;;;;;3.28;0.30;;;4.10;99.90;;;;;;5035399;28;20386;-73
2021/04/17 00:33:50;;;;;;;4.15;0.60;;;4.00;99.90;;;;;;5035350;28;20556;-73
2021/04/17 00:36:16;;;;;;;2.55;0.45;;;4.00;99.90;;;;;;5035275;28;20557;-73
2021/04/17 00:38:41;;;;;;;1.83;0.40;;;4.00;99.90;;;;;;5017535;28;20078;-73
2021/04/17 00:41:07;;;;;;;9.05;0.82;;;4.00;99.90;;;;;;5017275;28;20116;-72
2021/04/17 00:43:32;;;;;;;1.90;0.45;;;4.00;99.90;;;;;;5035180;28;20068;-72
2021/04/17 00:45:58;;;;;;;3.85;1.02;;;4.00;99.90;;;;;;5035102;28;20072;-72
2021/04/17 00:48:24;;;;;;;4.68;0.82;;;3.90;99.90;;;;;;5034867;28;20021;-72
2021/04/17 00:50:50;;;;;;;3.45;0.40;;;3.80;99.90;;;;;;5035117;28;20364;-73
2021/04/17 00:53:16;;;;;;;4.78;1.15;;;3.80;99.90;;;;;;5035069;28;20028;-73
2021/04/17 00:55:42;;;;;;;1.25;0.20;;;3.70;99.90;;;;;;5034848;28;20040;-73
2021/04/17 00:58:08;;;;;;;1.88;0.20;;;3.70;99.90;;;;;;5034946;28;20047;-73
2021/04/17 01:00:36;;;;;;;4.07;0.95;;;3.70;99.90;;;;;;5033554;28;20030;-73
2021/04/17 01:03:08;;;;;;;1.55;0.20;;;3.60;99.90;;;;;;5030413;28;20050;-73
2021/04/17 01:05:35;;;;;;;3.58;0.30;;;3.60;99.90;;;;;;5030281;28;20136;-73
2021/04/17 01:08:05;;;;;;;2.53;0.30;;;3.60;99.90;;;;;;5015197;28;20018;-73
2021/04/17 01:10:37;;;;;;;5.15;0.28;;;3.60;99.90;;;;;;5030437;28;20034;-73
2021/04/17 01:13:03;;;;;;;1.73;0.40;;;3.50;99.90;;;;;;5015051;28;20044;-73
2021/04/17 01:15:29;;;;;;;9.95;0.70;;;3.50;99.90;;;;;;5014679;28;20065;-73
2021/04/17 01:17:57;;;;;;;4.32;0.65;;;3.50;99.90;;;;;;5015070;28;20101;-73
2021/04/17 01:20:47;;;;;;;1.15;0.20;;;3.50;99.90;;;;;;5015021;28;20021;-73
2021/04/17 01:23:17;;;;;;;3.90;0.40;;;3.40;99.90;;;;;;5021472;28;20025;-73
2021/04/17 01:26:03;;;;;;;2.60;0.22;;;3.40;99.90;;;;;;5034664;28;20022;-73
2021/04/17 01:28:34;;;;;;;4.47;0.35;;;3.30;99.90;;;;;;5034459;28;20098;-73
2021/04/17 01:31:01;;;;;;;1.30;0.47;;;3.30;99.90;;;;;;5049906;28;20025;-73
2021/04/17 01:33:32;;;;;;;1.42;0.45;;;3.30;99.90;;;;;;5034340;28;20121;-73
2021/04/17 01:36:00;;;;;;;5.55;0.10;;;3.30;99.90;;;;;;5016831;28;20077;-73
2021/04/17 01:38:29;;;;;;;4.68;0.73;;;3.30;99.90;;;;;;5034281;28;20071;-73
2021/04/17 01:40:59;;;;;;;2.05;0.22;;;3.20;99.90;;;;;;5034345;28;20037;-73
2021/04/17 01:43:27;;;;;;;1.25;0.22;;;3.20;99.90;;;;;;5034564;28;20032;-73
2021/04/17 01:45:54;;;;;;;5.70;0.30;;;3.10;99.90;;;;;;5049010;28;20030;-73
2021/04/17 01:48:21;;;;;;;2.78;0.40;;;3.10;99.90;;;;;;5016070;28;20436;-73
2021/04/17 01:50:48;;;;;;;6.43;1.05;;;3.10;99.90;;;;;;5034130;28;20028;-73
2021/04/17 01:53:21;;;;;;;4.65;0.20;;;3.10;99.90;;;;;;5034100;28;20474;-73
2021/04/17 01:55:48;;;;;;;1.13;0.20;;;3.00;99.90;;;;;;5016191;28;20116;-73
2021/04/17 01:58:20;;;;;;;2.55;0.55;;;3.00;99.90;;;;;;5034298;28;20029;-73
2021/04/17 02:00:46;;;;;;;1.80;0.20;;;3.00;99.90;;;;;;5033945;28;20037;-73
2021/04/17 02:03:12;;;;;;;2.95;0.40;;;3.00;99.90;;;;;;5033809;28;20036;-73
2021/04/17 02:05:38;;;;;;;1.20;0.28;;;2.90;99.90;;;;;;5034167;28;20021;-73
2021/04/17 02:08:03;;;;;;;2.47;0.28;;;2.90;99.90;;;;;;5033673;28;20026;-73
2021/04/17 02:10:29;;;;;;;1.15;0.20;;;2.90;99.90;;;;;;5035744;28;20040;-73
2021/04/17 02:12:55;;;;;;;4.03;0.40;;;2.90;99.90;;;;;;5014517;28;20033;-73
2021/04/17 02:15:20;;;;;;;3.53;0.50;;;2.80;99.90;;;;;;5014212;28;20049;-73
2021/04/17 02:17:54;;;;;;;2.15;0.32;;;2.70;99.90;;;;;;5014399;28;20022;-73
2021/04/17 02:20:35;;;;;;;3.97;0.85;;;2.70;99.90;;;;;;5029279;28;20029;-73
2021/04/17 02:23:01;;;;;;;3.63;0.10;;;2.60;99.90;;;;;;5014205;28;20048;-73
2021/04/17 02:25:27;;;;;;;3.80;0.20;;;2.60;99.90;;;;;;5014149;28;20109;-73
2021/04/17 02:27:52;;;;;;;1.77;0.20;;;2.60;99.90;;;;;;5028970;28;20018;-73
2021/04/17 02:30:18;;;;;;;3.55;0.20;;;2.50;99.90;;;;;;5028876;28;20103;-73
2021/04/17 02:32:44;;;;;;;1.58;0.20;;;2.50;99.90;;;;;;5053878;28;20056;-73
2021/04/17 02:35:10;;;;;;;2.58;0.20;;;2.50;99.90;;;;;;5053491;28;20511;-73
2021/04/17 02:37:36;;;;;;;2.67;0.20;;;2.40;99.90;;;;;;5053952;28;20043;-74
2021/04/17 02:40:02;;;;;;;2.05;0.52;;;2.40;99.90;;;;;;5035878;28;20116;-73
2021/04/17 02:42:28;;;;;;;1.80;0.20;;;2.30;99.90;;;;;;5053591;28;20485;-73
2021/04/17 02:44:53;;;;;;;1.20;0.38;;;2.30;99.90;;;;;;5026007;28;20060;-73
2021/04/17 02:47:19;;;;;;;1.73;0.25;;;2.20;99.90;;;;;;5033494;28;20065;-75
2021/04/17 02:49:45;;;;;;;2.17;0.40;;;2.20;99.90;;;;;;5015816;28;20025;-75
2021/04/17 02:52:10;;;;;;;2.05;0.28;;;2.10;99.90;;;;;;5034445;28;20021;-74
2021/04/17 02:54:36;;;;;;;5.57;1.10;;;2.10;99.90;;;;;;5033666;28;20021;-73
2021/04/17 02:57:01;;;;;;;1.58;0.20;;;2.00;99.90;;;;;;5033872;28;20033;-73
2021/04/17 02:59:27;;;;;;;3.58;1.02;;;2.50;99.90;;;;;;5033556;28;20060;-73
2021/04/17 03:01:53;;;;;;;3.88;0.95;;;2.00;99.90;;;;;;5016101;28;20034;-74
2021/04/17 03:04:18;;;;;;;6.47;0.30;;;2.10;99.90;;;;;;5015613;28;20018;-74
2021/04/17 03:06:44;;;;;;;2.10;0.93;;;2.10;99.90;;;;;;5016242;28;20069;-74
2021/04/17 03:09:09;;;;;;;5.43;0.30;;;2.10;99.90;;;;;;5033309;28;20076;-77
2021/04/17 03:11:35;;;;;;;2.78;0.50;;;2.10;99.90;;;;;;5033984;28;20071;-75
2021/04/17 03:14:00;;;;;;;4.75;0.88;;;2.10;99.90;;;;;;5050661;23;20045;-74
2021/04/17 03:16:26;;;;;;;3.28;0.20;;;2.10;99.90;;;;;;5053231;28;20024;-74
2021/04/17 03:18:52;;;;;;;15.73;1.67;;;2.10;99.90;;;;;;5052036;28;20025;-74
2021/04/17 03:21:18;;;;;;;4.15;0.43;;;2.10;99.90;;;;;;5051700;28;20071;-74
2021/04/17 03:23:43;;;;;;;5.18;1.13;;;2.10;99.90;;;;;;5051858;28;20393;-74
2021/04/17 03:26:09;;;;;;;3.83;0.63;;;2.10;99.90;;;;;;5053442;28;20036;-74
2021/04/17 03:28:35;;;;;;;5.28;0.50;;;2.10;99.90;;;;;;5053021;28;20028;-74
2021/04/17 03:31:00;;;;;;;0.90;0.17;;;2.00;99.90;;;;;;5053043;28;20029;-74
2021/04/17 03:33:26;;;;;;;3.50;0.63;;;2.00;99.90;;;;;;5051901;28;20082;-74
2021/04/17 03:35:51;;;;;;;4.45;1.05;;;2.00;99.90;;;;;;5052442;28;20041;-74
2021/04/17 03:38:17;;;;;;;0.75;0.40;;;1.90;99.90;;;;;;5054571;28;20072;-74
2021/04/17 03:40:42;;;;;;;3.42;0.25;;;1.90;99.90;;;;;;5056709;28;20111;-74
2021/04/17 03:43:08;;;;;;;5.75;0.80;;;1.90;99.90;;;;;;5055242;28;20017;-74
2021/04/17 03:45:33;;;;;;;3.25;0.60;;;1.80;99.90;;;;;;5055355;28;20021;-74
2021/04/17 03:47:59;;;;;;;2.90;0.55;;;1.80;99.90;;;;;;5056232;28;20020;-74
2021/04/17 03:50:25;;;;;;;2.83;0.50;;;1.80;99.90;;;;;;5056476;28;20017;-74
2021/04/17 03:52:50;;;;;;;6.38;0.57;;;1.70;99.90;;;;;;5056726;28;20420;-74
2021/04/17 03:55:17;;;;;;;1.45;0.60;;;1.70;99.90;;;;;;5055014;28;20021;-74
2021/04/17 03:57:43;;;;;;;2.80;0.50;;;1.70;99.90;;;;;;5054963;28;20032;-74
2021/04/17 04:00:12;;;;;;;3.53;0.60;;;1.60;99.90;;;;;;5056102;28;20029;-74
2021/04/17 04:02:38;;;;;;;2.55;0.30;;;1.60;99.90;;;;;;5056825;28;20041;-74
2021/04/17 04:05:05;;;;;;;5.65;0.60;;;1.60;99.90;;;;;;5056428;28;20060;-74
2021/04/17 04:07:31;;;;;;;2.67;0.45;;;1.50;99.90;;;;;;5056098;28;20024;-74
2021/04/17 04:09:57;;;;;;;5.45;0.40;;;1.50;99.90;;;;;;5054875;28;20021;-74
2021/04/17 04:12:22;;;;;;;3.30;0.55;;;1.50;99.90;;;;;;5056714;28;20029;-74
2021/04/17 04:14:48;;;;;;;2.50;0.38;;;1.50;99.90;;;;;;5055152;28;20493;-74
2021/04/17 04:17:14;;;;;;;4.45;0.60;;;1.50;99.90;;;;;;5056107;28;20021;-74
2021/04/17 04:19:39;;;;;;;3.63;0.28;;;1.40;99.90;;;;;;5056406;28;20025;-74
2021/04/17 04:22:05;;;;;;;3.78;0.70;;;1.40;99.90;;;;;;5056147;28;20101;-74
2021/04/17 04:24:30;;;;;;;5.15;0.32;;;1.40;99.90;;;;;;5056267;28;20113;-74
2021/04/17 04:26:56;;;;;;;1.95;0.60;;;1.30;99.90;;;;;;5055352;28;20489;-74
2021/04/17 04:29:39;;;;;;;7.72;0.30;;;1.30;99.90;;;;;;5057212;28;20024;-75
2021/04/17 04:32:05;;;;;;;1.95;0.40;;;1.30;99.90;;;;;;5054144;28;20029;-74
2021/04/17 04:34:30;;;;;;;4.07;0.82;;;1.30;99.90;;;;;;5056294;28;20031;-74
2021/04/17 04:36:56;;;;;;;2.40;0.25;;;1.30;99.90;;;;;;5055699;28;20419;-75
2021/04/17 04:39:21;;;;;;;3.25;0.73;;;1.30;99.90;;;;;;5055921;28;20359;-74
2021/04/17 04:41:47;;;;;;;2.67;0.47;;;1.20;99.90;;;;;;5055315;28;20086;-74
2021/04/17 04:44:12;;;;;;;3.47;0.63;;;1.20;99.90;;;;;;5055468;28;20020;-74
2021/04/17 04:46:38;;;;;;;5.72;0.57;;;1.20;99.90;;;;;;5055524;28;20474;-74
2021/04/17 04:49:03;;;;;;;3.45;0.70;;;1.20;99.90;;;;;;5054747;28;20025;-75
2021/04/17 04:51:29;;;;;;;2.20;0.55;;;1.20;99.90;;;;;;5053528;28;20029;-75
2021/04/17 04:53:55;;;;;;;3.05;0.65;;;1.10;99.90;;;;;;5054766;28;20159;-75
2021/04/17 04:56:21;;;;;;;3.08;0.80;;;1.20;99.90;;;;;;5055475;28;20454;-74
2021/04/17 04:58:47;;;;;;;3.88;0.73;;;1.20;99.90;;;;;;5055384;28;20393;-75
2021/04/17 05:01:12;;;;;;;8.73;0.75;;;1.20;99.90;;;;;;5055331;28;20025;-75
2021/04/17 05:03:38;;;;;;;7.95;0.68;;;1.10;99.90;;;;;;5055185;28;20076;-75
2021/04/17 05:06:04;;;;;;;3.53;1.48;;;1.20;99.90;;;;;;5053809;28;20047;-74
2021/04/17 05:08:30;;;;;;;2.33;0.70;;;1.20;99.90;;;;;;5054929;28;20539;-74
2021/04/17 05:10:55;;;;;;;6.10;1.30;;;1.20;99.90;;;;;;5055267;28;20055;-74
2021/04/17 05:13:21;;;;;;;4.68;0.82;;;1.30;99.90;;;;;;5055030;28;20079;-74
2021/04/17 05:15:46;;;;;;;4.05;1.05;;;1.30;99.90;;;;;;5053892;28;20025;-75
2021/04/17 05:18:12;;;;;;;6.45;1.00;;;1.30;99.90;;;;;;5054942;28;20092;-75
2021/04/17 05:20:37;;;;;;;3.90;1.17;;;1.40;99.90;;;;;;5055501;28;20024;-75
2021/04/17 05:23:03;;;;;;;4.10;0.77;;;1.50;99.90;;;;;;5055082;28;20021;-74
2021/04/17 05:25:28;;;;;;;3.55;0.98;;;1.50;99.90;;;;;;5054551;28;20025;-74
2021/04/17 05:27:54;;;;;;;3.92;1.10;;;1.60;99.90;;;;;;5055196;28;20377;-74
2021/04/17 05:30:20;;;;;;;6.28;0.82;;;1.60;99.90;;;;;;5053435;28;20116;-74
2021/04/17 05:32:46;;;;;;;3.13;0.68;;;1.70;99.90;;;;;;5054653;28;20029;-74
2021/04/17 05:35:11;;;;;;;4.82;0.75;;;1.80;99.90;;;;;;5054940;28;20493;-74
2021/04/17 05:37:37;;;;;;;5.05;1.05;;;1.90;99.90;;;;;;5054455;28;20047;-74
2021/04/17 05:40:04;;;;;;;7.38;1.90;;;2.00;99.90;;;;;;5054718;28;20035;-74
2021/04/17 05:42:29;;;;;;;3.38;0.75;;;2.10;99.90;;;;;;5053306;28;20021;-74
2021/04/17 05:44:55;;;;;;;7.97;1.13;;;2.20;99.90;;;;;;5054421;28;20173;-75
2021/04/17 05:47:20;;;;;;;4.85;1.10;;;2.30;99.90;;;;;;5054192;28;20021;-75
2021/04/17 05:49:46;;;;;;;3.33;1.00;;;2.40;99.90;;;;;;5052910;28;20029;-75
2021/04/17 05:52:12;;;;;;;3.90;0.82;;;2.50;99.90;;;;;;5052842;28;20013;-75
2021/04/17 05:54:38;;;;;;;8.75;1.38;;;2.60;99.90;;;;;;5054782;28;20017;-75
2021/04/17 05:57:03;;;;;;;6.22;1.35;;;2.70;99.90;;;;;;5052920;28;20104;-75
2021/04/17 05:59:29;;;;;;;3.55;1.50;;;2.80;99.90;;;;;;5053981;28;20056;-75
2021/04/17 06:01:54;;;;;;;5.88;1.55;;;3.00;99.90;;;;;;5052396;28;20037;-74
2021/04/17 06:04:20;;;;;;;5.82;1.15;;;3.10;99.90;;;;;;5053917;28;20021;-74
2021/04/17 06:06:46;;;;;;;6.30;1.55;;;3.20;99.90;;;;;;5054003;28;20465;-75
2021/04/17 06:09:13;;;;;;;7.47;1.38;;;3.40;99.90;;;;;;5053634;28;20025;-74
2021/04/17 06:11:38;;;;;;;3.85;0.93;;;3.50;99.90;;;;;;5053683;28;20027;-75
2021/04/17 06:14:04;;;;;;;3.75;1.05;;;3.60;99.90;;;;;;5052253;28;20041;-75
2021/04/17 06:16:29;;;;;;;7.03;1.70;;;3.80;99.90;;;;;;5052207;28;20021;-75
2021/04/17 06:18:55;;;;;;;4.90;1.27;;;3.90;99.90;;;;;;5052237;28;20458;-74
2021/04/17 06:21:20;;;;;;;2.65;1.25;;;4.10;99.90;;;;;;5052100;28;20025;-75
2021/04/17 06:23:46;;;;;;;6.18;1.88;;;4.20;99.90;;;;;;5053133;28;20103;-75
2021/04/17 06:26:12;;;;;;;8.10;1.60;;;4.40;99.90;;;;;;5052050;28;20017;-75
2021/04/17 06:28:37;;;;;;;5.63;1.48;;;4.60;99.90;;;;;;5053446;28;20021;-74
2021/04/17 06:31:04;;;;;;;4.50;1.30;;;4.70;99.90;;;;;;5052299;28;20024;-75
2021/04/17 06:33:30;;;;;;;7.22;1.10;;;4.80;99.90;;;;;;5050259;28;20022;-75
2021/04/17 06:35:56;;;;;;;5.38;1.27;;;5.00;99.90;;;;;;5063031;23;20053;-73
2021/04/17 06:38:22;;;;;;;6.03;1.23;;;5.10;99.90;;;;;;5052075;28;20363;-73
2021/04/17 06:40:50;;;;;;;4.45;0.90;;;5.30;99.90;;;;;;5053338;28;20017;-73
2021/04/17 06:43:20;;;;;;;6.72;1.38;;;5.30;99.90;;;;;;5053680;28;20017;-73
2021/04/17 06:45:46;;;;;;;3.30;1.30;;;5.50;99.90;;;;;;5052059;28;20021;-73
2021/04/17 06:48:15;;;;;;;6.63;1.48;;;5.60;99.90;;;;;;5052081;28;20021;-72
2021/04/17 06:50:41;;;;;;;2.05;0.63;;;5.80;99.90;;;;;;5053344;28;20481;-73
2021/04/17 06:53:11;;;;;;;3.00;0.43;;;6.00;99.90;;;;;;5053642;28;20029;-73
2021/04/17 06:55:37;;;;;;;4.00;0.98;;;6.10;99.90;;;;;;5053802;28;20032;-73
2021/04/17 06:58:03;;;;;;;5.10;1.00;;;6.20;99.90;;;;;;5053259;28;20021;-73
2021/04/17 07:00:29;;;;;;;5.97;0.85;;;6.40;99.90;;;;;;5053163;28;20505;-73
2021/04/17 07:02:55;;;;;;;5.90;1.42;;;6.60;99.90;;;;;;5053493;28;20060;-73
2021/04/17 07:05:21;;;;;;;5.55;0.22;;;6.70;99.90;;;;;;5052480;28;20029;-74
2021/04/17 07:07:47;;;;;;;3.97;0.65;;;6.80;99.90;;;;;;5053373;28;20029;-73
2021/04/17 07:10:14;;;;;;;4.60;0.50;;;7.00;99.90;;;;;;5052308;28;20527;-73
2021/04/17 07:12:43;;;;;;;1.90;0.10;;;7.10;99.90;;;;;;5053690;28;20033;-72
2021/04/17 07:15:10;;;;;;;6.05;0.93;;;7.20;99.90;;;;;;5057946;28;20473;-73
2021/04/17 07:17:36;;;;;;;4.38;0.35;;;7.40;99.90;;;;;;5057109;28;20501;-73
2021/04/17 07:20:07;;;;;;;1.52;0.05;;;7.50;99.90;;;;;;5057434;28;20478;-75
2021/04/17 07:22:38;;;;;;;4.57;0.43;;;7.60;99.90;;;;;;5069874;22;20024;-74
2021/04/17 07:25:06;;;;;;;3.60;0.20;;;7.70;99.90;;;;;;5055781;28;20071;-73
2021/04/17 07:27:42;;;;;;;1.83;0.10;;;7.90;99.90;;;;;;5055703;28;20037;-75
2021/04/17 07:30:17;;;;;;;2.63;0.10;;;8.00;99.90;;;;;;5055248;28;20036;-74
2021/04/17 07:32:43;;;;;;;0.85;0.00;;;8.10;99.90;;;;;;5056085;28;20029;-74
2021/04/17 07:35:20;;;;;;;3.20;0.10;;;8.30;99.90;;;;;;5056852;28;20056;-75
2021/04/17 07:37:48;;;;;;;1.30;0.00;;;8.40;99.90;;;;;;5056468;28;20090;-75
2021/04/17 07:40:22;;;;;;;0.32;0.17;;;8.60;99.90;;;;;;5056573;28;20063;-74
2021/04/17 07:42:51;;;;;;;1.63;0.10;;;8.70;99.90;;;;;;5056789;28;20424;-73
2021/04/17 07:45:23;;;;;;;4.22;0.55;;;8.80;97.70;;;;;;5057040;28;20020;-74
2021/04/17 07:47:49;;;;;;;2.75;0.00;;;8.90;98.40;;;;;;5055694;28;20398;-73
2021/04/17 07:50:17;;;;;;;1.00;0.00;;;9.00;96.50;;;;;;5069561;22;20493;-76
2021/04/17 07:52:42;;;;;;;3.13;0.00;;;9.20;95.70;;;;;;5056893;28;20078;-73
2021/04/17 07:55:14;;;;;;;1.75;0.20;;;9.30;94.40;;;;;;5055542;28;20436;-74
2021/04/17 07:57:55;;;;;;;2.33;0.00;;;9.40;92.10;;;;;;5056680;28;20027;-75
2021/04/17 08:00:23;;;;;;;0.75;0.10;;;9.60;93.70;;;;;;5055241;28;20083;-74
2021/04/17 08:02:52;;;;;;;4.40;0.20;;;9.70;93.60;;;;;;5056666;28;20138;-73
2021/04/17 08:05:19;;;;;;;2.83;0.47;;;10.00;94.10;;;;;;5055154;28;20021;-75
2021/04/17 08:07:47;;;;;;;1.65;0.00;;;10.00;89.50;;;;;;5056190;28;20021;-72
2021/04/17 08:10:14;;;;;;;1.10;0.10;;;10.00;90.20;;;;;;5056567;28;20036;-75
2021/04/17 08:12:41;;;;;;;1.80;0.00;;;10.10;89.90;;;;;;5055032;28;20017;-77
2021/04/17 08:15:11;;;;;;;3.42;0.00;;;10.10;88.70;;;;;;5056293;28;20025;-74
2021/04/17 08:17:41;;;;;;;1.65;0.05;;;10.30;85.20;;;;;;5056577;28;20021;-76
2021/04/17 08:20:12;;;;;;;1.85;0.00;;;10.30;84.80;;;;;;5055048;28;20112;-75
2021/04/17 08:22:39;;;;;;;0.55;0.00;;;10.30;80.20;;;;;;5055675;28;20448;-75
2021/04/17 08:25:06;;;;;;;2.95;0.10;;;10.30;81.50;;;;;;5055984;28;20027;-74
2021/04/17 08:27:33;;;;;;;0.32;0.00;;;10.30;82.20;;;;;;5055632;28;20029;-74
2021/04/17 08:30:06;;;;;;;2.85;0.00;;;10.40;82.30;;;;;;5056157;28;20021;-77
2021/04/17 08:32:34;;;;;;;2.95;0.00;;;10.50;77.90;;;;;;5040354;28;20017;-74
2021/04/17 08:35:18;;;;;;;3.13;0.00;;;10.50;75.50;;;;;;5055733;28;20493;-74
2021/04/17 08:37:56;;;;;;;0.75;0.00;;;10.60;74.30;;;;;;5055681;28;20028;-76
2021/04/17 08:40:37;;;;;;;1.05;0.00;;;10.60;74.00;;;;;;5054832;28;20478;-75
2021/04/17 08:43:15;;;;;;;0.63;0.00;;;10.50;72.00;;;;;;5056113;28;20029;-74
2021/04/17 08:46:05;;;;;;;3.10;0.00;;;10.30;72.20;;;;;;5054898;28;20021;-75
2021/04/17 08:48:53;;;;;;;1.58;0.00;;;10.40;74.20;;;;;;5054455;28;20025;-76
2021/04/17 08:51:22;;;;;;;0.63;0.10;;;10.40;73.90;;;;;;5068358;22;20061;-76
2021/04/17 08:53:49;;;;;;;1.77;0.00;;;10.50;72.80;;;;;;5054458;28;20108;-73
2021/04/17 08:56:15;;;;;;;1.25;0.00;;;10.70;71.30;;;;;;5055221;28;20025;-75
2021/04/17 08:58:41;;;;;;;3.22;0.10;;;10.90;72.30;;;;;;5055721;28;20013;-79
2021/04/17 09:01:10;;;;;;;2.92;0.00;;;10.90;68.40;;;;;;5053941;28;20031;-75
2021/04/17 09:03:48;;;;;;;1.30;0.00;;;10.90;67.20;;;;;;5053818;28;20032;-77
2021/04/17 09:06:23;;;;;;;1.33;0.00;;;10.90;68.50;;;;;;5054099;28;20025;-74
2021/04/17 09:09:16;;;;;;;3.20;0.00;;;10.90;69.60;;;;;;5055028;28;20044;-75
2021/04/17 09:11:47;;;;;;;0.43;0.00;;;11.10;70.00;;;;;;5054471;28;20174;-75
2021/04/17 09:14:34;;;;;;;2.10;0.00;;;11.30;68.70;;;;;;5054643;28;20036;-75
2021/04/17 09:17:08;;;;;;;0.73;0.10;;;11.60;65.70;;;;;;5054545;28;20069;-79
2021/04/17 09:19:44;;;;;;;1.83;0.00;;;11.80;69.40;;;;;;5053756;28;20068;-75
2021/04/17 09:22:25;;;;;;;4.65;0.00;;;11.90;63.40;;;;;;5055181;28;20044;-79
2021/04/17 09:24:52;;;;;;;3.08;0.08;;;11.90;60.90;;;;;;5055154;28;20025;-74
2021/04/17 09:27:32;;;;;;;0.13;0.00;;;12.10;60.90;;;;;;5055117;28;20079;-75
2021/04/17 09:30:05;;;;;;;0.00;0.00;;;12.20;60.70;;;;;;5054916;28;20024;-75
2021/04/17 09:32:32;;;;;;;0.95;0.00;;;12.20;58.90;;;;;;5054536;28;20078;-76
2021/04/17 09:34:58;;;;;;;1.10;0.00;;;12.20;60.80;;;;;;5054441;28;20130;-76
2021/04/17 09:37:33;;;;;;;1.25;0.00;;;12.20;60.00;;;;;;5053642;28;20025;-74
2021/04/17 09:39:59;;;;;;;3.67;0.22;;;12.30;62.00;;;;;;5052731;28;20482;-79
2021/04/17 09:42:32;;;;;;;3.55;0.30;;;12.50;58.60;;;;;;5054699;28;20017;-78
2021/04/17 09:44:59;;;;;;;2.20;0.00;;;12.40;56.30;;;;;;5054439;28;20472;-76
2021/04/17 09:47:24;;;;;;;6.28;0.20;;;12.50;55.80;;;;;;5054360;28;20426;-79
2021/04/17 09:49:51;;;;;;;1.92;0.00;;;12.70;56.40;;;;;;5052661;28;20025;-76
2021/04/17 09:52:20;;;;;;;0.28;0.00;;;12.60;56.60;;;;;;5052691;28;20433;-76
2021/04/17 09:54:55;;;;;;;0.82;0.00;;;12.70;55.10;;;;;;5054116;28;20519;-75
2021/04/17 09:57:20;;;;;;;3.05;0.00;;;12.60;54.40;;;;;;5053883;28;20108;-78
2021/04/17 09:59:57;;;;;;;1.55;0.00;;;12.80;55.10;;;;;;5053903;28;20056;-76
2021/04/17 10:02:41;;;;;;;3.38;0.00;;;12.80;56.20;;;;;;5053609;28;20017;-76
2021/04/17 10:05:07;;;;;;;3.15;0.00;;;12.90;55.80;;;;;;5053556;28;20017;-74
2021/04/17 10:07:50;;;;;;;3.20;0.00;;;13.00;52.50;;;;;;5051965;28;20025;-76
2021/04/17 10:10:16;;;;;;;1.98;0.00;;;12.90;52.60;;;;;;5054106;28;20099;-74
2021/04/17 10:12:55;;;;;;;3.45;0.00;;;12.90;53.00;;;;;;5053734;28;20481;-77
2021/04/17 10:15:26;;;;;;;0.80;0.03;;;12.80;52.00;;;;;;5055486;28;20424;-79
2021/04/17 10:17:54;;;;;;;2.80;0.08;;;13.00;54.00;;;;;;5053603;28;20520;-78
2021/04/17 10:20:20;;;;;;;3.47;0.25;;;13.10;56.50;;;;;;5053041;28;20025;-77
2021/04/17 10:23:03;;;;;;;3.17;0.13;;;13.30;54.00;;;;;;5052707;28;20047;-77
2021/04/17 10:25:38;;;;;;;2.05;0.25;;;13.20;54.10;;;;;;5053324;28;20025;-76
2021/04/17 10:28:25;;;;;;;1.48;0.15;;;13.00;54.30;;;;;;5052761;28;20398;-76
2021/04/17 10:30:56;;;;;;;0.52;0.30;;;13.00;52.70;;;;;;5052106;28;20025;-74
2021/04/17 10:33:29;;;;;;;0.77;0.00;;;13.20;55.10;;;;;;5054327;28;20029;-76
2021/04/17 10:35:57;;;;;;;2.40;0.47;;;13.30;54.00;;;;;;5052073;28;20059;-74
2021/04/17 10:38:25;;;;;;;0.45;0.10;;;13.50;53.80;;;;;;5053510;28;20032;-77
2021/04/17 10:40:50;;;;;;;1.75;0.00;;;13.70;51.90;;;;;;5052465;28;20024;-76
2021/04/17 10:43:17;;;;;;;1.45;0.10;;;13.80;50.20;;;;;;5051341;28;20474;-76
2021/04/17 10:45:44;;;;;;;2.20;0.43;;;13.90;50.90;;;;;;5051943;28;20021;-76
2021/04/17 10:48:23;;;;;;;1.10;0.00;;;14.00;51.20;;;;;;5054269;28;20108;-76
2021/04/17 10:51:05;;;;;;;1.25;0.00;;;14.20;50.90;;;;;;5067560;28;20043;-76
2021/04/17 10:53:34;;;;;;;0.82;0.00;;;14.20;51.80;;;;;;5068799;28;20035;-75
2021/04/17 10:56:09;;;;;;;1.13;0.00;;;14.50;51.80;;;;;;5076906;28;20017;-75
2021/04/17 10:58:36;;;;;;;0.52;0.10;;;14.80;50.50;;;;;;5093123;28;20024;-73
2021/04/17 11:01:05;;;;;;;1.92;0.00;;;14.70;50.90;;;;;;5077304;28;20024;-74
2021/04/17 11:03:41;;;;;;;1.60;0.00;;;14.80;51.10;;;;;;5077173;28;20050;-74
2021/04/17 11:06:38;;;;;;;2.85;0.00;;;14.80;49.70;;;;;;5072707;28;20358;-74
2021/04/17 11:09:11;;;;;;;0.95;0.10;;;14.90;48.30;;;;;;5039685;28;20044;-74
2021/04/17 11:11:38;;;;;;;1.80;0.50;;;14.90;47.50;;;;;;5056592;28;20049;-74
2021/04/17 11:14:06;;;;;;;1.33;0.30;;;15.10;49.10;;;;;;5056939;28;20040;-74
2021/04/17 11:16:45;;;;;;;1.50;0.00;;;14.90;47.90;;;;;;5055300;28;20029;-75
2021/04/17 11:19:28;;;;;;;0.60;0.10;;;14.70;48.90;;;;;;5055786;28;20079;-75
2021/04/17 11:22:13;;;;;;;0.40;0.00;;;14.90;49.70;;;;;;5092572;22;20016;-74
2021/04/17 11:24:41;;;;;;;1.25;0.10;;;14.90;47.60;;;;;;5056688;28;20044;-74
2021/04/17 11:27:07;;;;;;;0.67;0.00;;;14.70;47.40;;;;;;5056765;28;20473;-73
2021/04/17 11:29:33;;;;;;;1.02;0.00;;;14.70;48.40;;;;;;5055449;28;20024;-74
2021/04/17 11:31:59;;;;;;;3.30;0.10;;;14.70;50.50;;;;;;5056248;28;20116;-77
2021/04/17 11:34:24;;;;;;;2.55;0.20;;;15.00;50.20;;;;;;5056456;28;20025;-75
2021/04/17 11:36:50;;;;;;;5.63;0.55;;;15.10;49.30;;;;;;5056675;28;20029;-78
2021/04/17 11:39:16;;;;;;;2.08;0.10;;;15.30;46.90;;;;;;5059404;28;20417;-76
2021/04/17 11:41:42;;;;;;;0.90;0.08;;;15.30;48.00;;;;;;5056227;28;20473;-75
2021/04/17 11:44:08;;;;;;;2.30;0.10;;;15.00;48.60;;;;;;5056431;28;20025;-76
2021/04/17 11:46:36;;;;;;;2.63;0.30;;;14.60;49.80;;;;;;5056898;28;20036;-78
2021/04/17 11:49:02;;;;;;;0.73;0.20;;;14.30;49.80;;;;;;5057819;28;20423;-74
2021/04/17 11:51:28;;;;;;;3.72;0.00;;;14.10;50.30;;;;;;5055165;28;20175;-75
2021/04/17 11:53:54;;;;;;;2.08;0.20;;;14.00;51.50;;;;;;5055945;28;20071;-75
2021/04/17 11:56:19;;;;;;;1.95;0.40;;;14.00;51.70;;;;;;5067408;22;20037;-76
2021/04/17 11:58:45;;;;;;;4.65;0.98;;;14.00;50.70;;;;;;5066904;22;20130;-76
2021/04/17 12:01:11;;;;;;;2.45;0.13;;;14.00;51.50;;;;;;5054792;28;20025;-76
2021/04/17 12:03:37;;;;;;;0.70;0.10;;;14.10;51.70;;;;;;5056069;28;20027;-76
2021/04/17 12:06:03;;;;;;;0.20;0.00;;;14.20;52.30;;;;;;5054685;28;20079;-76
2021/04/17 12:08:29;;;;;;;2.53;0.10;;;14.40;50.30;;;;;;5054236;28;20052;-76
2021/04/17 12:10:54;;;;;;;2.78;0.60;;;14.20;50.70;;;;;;5055249;28;20482;-76
2021/04/17 12:13:20;;;;;;;1.00;0.00;;;14.00;52.60;;;;;;5055485;28;20021;-76
2021/04/17 12:15:46;;;;;;;1.95;0.10;;;14.30;52.60;;;;;;5055683;28;20021;-76
2021/04/17 12:18:15;;;;;;;2.38;0.17;;;14.70;52.40;;;;;;5054222;28;20657;-76
2021/04/17 12:20:41;;;;;;;5.95;0.17;;;15.00;50.60;;;;;;5055013;28;20029;-76
2021/04/17 12:23:07;;;;;;;3.28;0.00;;;15.00;50.10;;;;;;5054653;28;20017;-76
2021/04/17 12:25:32;;;;;;;4.32;0.10;;;14.80;50.80;;;;;;5054027;28;20142;-76
2021/04/17 12:27:58;;;;;;;2.03;0.20;;;14.40;51.20;;;;;;5055131;28;20032;-75
2021/04/17 12:30:24;;;;;;;5.28;0.47;;;14.40;51.60;;;;;;5054405;28;20054;-76
2021/04/17 12:32:50;;;;;;;3.58;0.65;;;14.80;51.10;;;;;;5055803;28;20077;-76
2021/04/17 12:35:16;;;;;;;3.42;0.10;;;14.70;50.50;;;;;;5056181;28;20483;-76
2021/04/17 12:37:45;;;;;;;1.38;0.25;;;14.30;51.30;;;;;;5057018;28;20377;-77
2021/04/17 12:40:11;;;;;;;2.95;0.28;;;14.10;51.50;;;;;;5056279;28;20064;-76
2021/04/17 12:42:37;;;;;;;4.20;0.10;;;14.10;53.20;;;;;;5053791;28;20021;-73
2021/04/17 12:45:04;;;;;;;4.38;0.10;;;14.30;52.20;;;;;;5054021;28;20029;-75
2021/04/17 12:47:30;;;;;;;1.45;0.10;;;14.30;50.20;;;;;;5053937;28;20017;-76
2021/04/17 12:49:57;;;;;;;3.28;0.00;;;14.50;50.60;;;;;;5055201;28;20035;-77
2021/04/17 12:52:24;;;;;;;1.50;0.20;;;14.40;50.40;;;;;;5054918;28;20099;-75
2021/04/17 12:54:49;;;;;;;1.52;0.10;;;14.40;51.50;;;;;;5053438;28;20431;-74
2021/04/17 12:57:15;;;;;;;2.35;0.10;;;14.50;51.90;;;;;;5054718;28;20052;-74
2021/04/17 12:59:41;;;;;;;2.15;0.20;;;14.60;51.40;;;;;;5082188;22;20504;-75